Time;durP1;ratioP1;P1;durP2;ratioP2;P2;SDS_P1;SDS_P2;PMS_P1;PMS_P2;Temp;Humidity;BMP_temperature;BMP_pressure;BME280_temperature;BME280_humidity;BME280_pressure;Samples;Min_cycle;Max_cycle;Signal;HPM_P1;HPM_P2
2022/07/31 00:00:59;;;;;;;6.43;5.55;;;;;;;19.33;78.57;93306.53;5073080;28;20025;-74
2022/07/31 00:03:25;;;;;;;5.47;4.97;;;;;;;19.32;79.49;93305.06;5053767;28;20044;-74
2022/07/31 00:05:50;;;;;;;9.45;7.22;;;;;;;19.47;78.28;93301.78;5060163;28;20154;-71
2022/07/31 00:08:16;;;;;;;7.72;5.13;;;;;;;19.16;79.40;93278.91;5073521;28;20024;-73
2022/07/31 00:10:42;;;;;;;5.50;4.95;;;;;;;19.17;78.22;93269.16;5073354;28;20035;-73
2022/07/31 00:13:07;;;;;;;8.50;5.25;;;;;;;19.56;77.32;93300.91;5073378;28;20513;-71
2022/07/31 00:15:33;;;;;;;6.10;5.15;;;;;;;19.54;77.47;93305.66;5073169;28;20025;-72
2022/07/31 00:17:59;;;;;;;7.53;5.25;;;;;;;19.37;77.91;93295.59;5073228;28;20097;-70
2022/07/31 00:20:26;;;;;;;5.88;4.65;;;;;;;19.44;78.52;93325.41;5104960;28;20031;-71
2022/07/31 00:22:53;;;;;;;5.82;5.00;;;;;;;19.29;79.23;93297.91;5073131;28;20494;-71
2022/07/31 00:25:19;;;;;;;5.95;5.38;;;;;;;19.48;77.84;93325.66;5071673;28;20065;-70
2022/07/31 00:27:45;;;;;;;5.97;4.70;;;;;;;19.33;78.34;93312.13;5073055;28;20129;-70
2022/07/31 00:30:12;;;;;;;6.65;4.63;;;;;;;19.25;77.71;93311.63;5071497;28;20459;-74
2022/07/31 00:32:37;;;;;;;5.13;4.63;;;;;;;19.22;77.57;93303.72;5071677;28;20021;-72
2022/07/31 00:35:04;;;;;;;7.47;5.35;;;;;;;19.12;77.81;93308.72;5072690;28;20540;-71
2022/07/31 00:37:29;;;;;;;8.63;4.60;;;;;;;19.22;77.93;93301.66;5071654;28;20105;-70
2022/07/31 00:39:55;;;;;;;6.60;4.88;;;;;;;19.08;77.70;93302.88;5071450;28;20035;-69
2022/07/31 00:42:24;;;;;;;21.52;19.63;;;;;;;18.82;78.28;93299.22;5072679;28;20028;-68
2022/07/31 00:44:51;;;;;;;6.70;6.03;;;;;;;18.88;79.35;93314.28;5072811;28;20050;-69
2022/07/31 00:47:17;;;;;;;6.10;4.63;;;;;;;18.78;80.72;93318.53;5072763;28;20048;-68
2022/07/31 00:49:44;;;;;;;8.27;5.22;;;;;;;18.69;79.93;93325.72;5072660;28;20017;-69
2022/07/31 00:52:11;;;;;;;4.80;4.40;;;;;;;18.72;80.64;93340.56;5070531;28;20089;-68
2022/07/31 00:54:36;;;;;;;5.38;4.45;;;;;;;18.63;79.57;93327.41;5072522;28;20074;-69
2022/07/31 00:57:02;;;;;;;9.30;4.22;;;;;;;18.98;77.07;93335.84;5071949;28;20028;-69
2022/07/31 00:59:29;;;;;;;4.72;4.20;;;;;;;19.08;75.82;93336.47;5070784;28;20029;-64
2022/07/31 01:01:55;;;;;;;6.25;4.85;;;;;;;18.89;76.68;93343.75;5071831;28;20082;-69
2022/07/31 01:04:20;;;;;;;9.82;5.45;;;;;;;18.88;77.10;93349.94;5072275;28;20078;-68
2022/07/31 01:06:46;;;;;;;7.25;4.60;;;;;;;18.72;78.17;93338.50;5068315;28;20485;-69
2022/07/31 01:09:15;;;;;;;5.60;4.95;;;;;;;18.78;76.95;93338.84;5059786;28;20052;-69
2022/07/31 01:11:59;;;;;;;6.18;4.47;;;;;;;18.73;77.12;93334.34;5070176;28;20032;-69
2022/07/31 01:14:28;;;;;;;8.63;4.80;;;;;;;18.57;77.33;93333.34;5063998;28;20094;-68
2022/07/31 01:16:54;;;;;;;7.82;4.75;;;;;;;18.54;78.28;93348.53;5071400;28;20032;-68
2022/07/31 01:19:31;;;;;;;5.47;4.97;;;;;;;18.46;79.29;93347.28;5093626;28;20206;-68
2022/07/31 01:22:15;;;;;;;11.93;5.55;;;;;;;18.48;80.20;93350.94;5070535;28;20479;-68
2022/07/31 01:25:16;;;;;;;8.77;5.43;;;;;;;18.38;79.77;93343.97;5071399;28;20032;-69
2022/07/31 01:28:00;;;;;;;7.85;4.88;;;;;;;18.42;79.51;93352.59;5059473;28;20071;-68
2022/07/31 01:30:31;;;;;;;7.05;4.88;;;;;;;18.53;78.57;93346.34;5071357;28;20025;-69
2022/07/31 01:32:57;;;;;;;8.77;5.25;;;;;;;18.53;80.04;93351.94;5070739;28;20115;-68
2022/07/31 01:35:26;;;;;;;6.53;5.07;;;;;;;18.35;79.19;93309.56;5070563;28;20024;-69
2022/07/31 01:38:10;;;;;;;5.88;4.57;;;;;;;18.41;79.76;93339.97;5071268;28;20029;-69
2022/07/31 01:40:46;;;;;;;4.80;4.30;;;;;;;18.44;78.09;93319.94;5071176;28;20067;-69
2022/07/31 01:43:16;;;;;;;32.42;30.45;;;;;;;18.47;78.74;93334.78;5104261;28;20047;-70
2022/07/31 01:45:49;;;;;;;6.05;5.38;;;;;;;18.25;79.27;93336.13;5063924;28;20085;-74
2022/07/31 01:48:16;;;;;;;6.90;4.80;;;;;;;18.42;78.34;93336.56;5085784;28;20060;-76
2022/07/31 01:50:44;;;;;;;10.18;9.48;;;;;;;18.58;77.52;93339.69;5097880;28;20021;-80
2022/07/31 01:53:21;;;;;;;5.03;4.15;;;;;;;18.13;79.16;93303.28;5096076;28;20533;-76
2022/07/31 01:55:52;;;;;;;8.82;8.05;;;;;;;18.19;80.67;93339.28;5069139;28;20027;-70
2022/07/31 01:58:19;;;;;;;5.78;5.03;;;;;;;18.08;80.56;93321.13;5068218;28;20058;-70
2022/07/31 02:00:45;;;;;;;8.73;5.32;;;;;;;17.83;80.17;93298.56;5069594;28;20016;-70
2022/07/31 02:03:12;;;;;;;11.32;6.18;;;;;;;18.12;79.36;93315.81;5069866;28;20028;-70
2022/07/31 02:05:40;;;;;;;6.10;4.93;;;;;;;18.04;79.89;93328.53;5071130;28;20020;-71
2022/07/31 02:08:05;;;;;;;8.02;5.30;;;;;;;17.96;80.25;93314.75;5069848;28;20397;-71
2022/07/31 02:10:32;;;;;;;9.95;5.65;;;;;;;18.10;80.09;93321.25;5095050;28;20012;-69
2022/07/31 02:12:58;;;;;;;10.48;9.02;;;;;;;18.17;79.16;93317.50;5070570;28;20141;-70
2022/07/31 02:15:24;;;;;;;8.18;5.15;;;;;;;18.20;78.69;93329.56;5091908;28;20070;-69
2022/07/31 02:17:50;;;;;;;14.82;5.65;;;;;;;18.05;78.74;93325.13;5065118;28;20024;-69
2022/07/31 02:20:17;;;;;;;8.20;4.63;;;;;;;18.10;78.26;93329.63;5095766;28;20028;-69
2022/07/31 02:22:43;;;;;;;8.32;5.50;;;;;;;17.94;79.30;93325.81;5059831;28;20111;-68
2022/07/31 02:25:08;;;;;;;7.80;4.28;;;;;;;18.00;77.88;93312.22;5049665;28;20100;-68
2022/07/31 02:27:34;;;;;;;5.85;4.20;;;;;;;18.12;77.64;93331.84;5083389;28;20021;-68
2022/07/31 02:30:02;;;;;;;7.00;3.92;;;;;;;18.19;77.99;93323.22;5082979;28;20029;-67
2022/07/31 02:32:29;;;;;;;5.38;3.40;;;;;;;18.13;77.17;93299.75;5059721;28;20512;-68
2022/07/31 02:34:56;;;;;;;9.25;4.22;;;;;;;18.14;77.16;93313.16;5068960;28;20031;-68
2022/07/31 02:37:22;;;;;;;3.97;3.58;;;;;;;18.14;76.33;93320.78;5070647;28;20044;-68
2022/07/31 02:39:50;;;;;;;4.43;3.03;;;;;;;17.82;77.35;93299.88;5069658;28;20036;-68
2022/07/31 02:42:16;;;;;;;3.75;3.45;;;;;;;17.84;78.17;93319.56;5070389;28;20031;-69
2022/07/31 02:44:41;;;;;;;5.65;3.47;;;;;;;18.02;76.83;93323.53;5070577;28;20020;-69
2022/07/31 02:47:07;;;;;;;5.97;3.85;;;;;;;18.04;76.11;93301.31;5070459;28;20099;-69
2022/07/31 02:49:44;;;;;;;9.05;4.38;;;;;;;17.85;77.86;93317.50;5069197;28;20027;-69
2022/07/31 02:52:11;;;;;;;4.70;3.58;;;;;;;17.90;77.59;93322.03;5069177;28;20017;-69
2022/07/31 02:54:39;;;;;;;4.30;3.90;;;;;;;18.09;77.29;93319.06;5069090;28;20031;-69
2022/07/31 02:57:04;;;;;;;12.27;5.10;;;;;;;18.01;78.27;93316.50;5070598;28;20051;-69
2022/07/31 02:59:31;;;;;;;7.32;3.90;;;;;;;17.95;77.81;93323.75;5070509;28;20024;-69
2022/07/31 03:01:57;;;;;;;4.30;3.75;;;;;;;18.04;76.95;93322.94;5070197;28;20589;-69
2022/07/31 03:04:23;;;;;;;8.88;4.35;;;;;;;17.89;78.06;93326.88;5070118;28;20036;-69
2022/07/31 03:06:49;;;;;;;4.95;3.83;;;;;;;17.94;76.73;93308.31;5070238;28;20025;-69
2022/07/31 03:09:15;;;;;;;7.63;4.90;;;;;;;18.05;78.30;93329.97;5069703;28;20025;-69
2022/07/31 03:11:43;;;;;;;15.13;5.28;;;;;;;17.98;79.17;93331.66;5102003;28;20028;-68
2022/07/31 03:14:11;;;;;;;28.67;6.80;;;;;;;17.93;79.66;93329.91;5068472;28;20047;-68
2022/07/31 03:16:38;;;;;;;16.45;6.57;;;;;;;18.03;79.87;93335.44;5101044;28;20467;-69
2022/07/31 03:19:04;;;;;;;7.32;6.13;;;;;;;17.83;81.24;93315.31;5100452;28;20413;-69
2022/07/31 03:21:30;;;;;;;14.85;7.22;;;;;;;17.77;81.44;93317.72;5068542;28;20092;-68
2022/07/31 03:23:57;;;;;;;10.20;5.75;;;;;;;18.07;81.26;93333.63;5068682;28;20445;-68
2022/07/31 03:26:24;;;;;;;6.82;5.30;;;;;;;18.12;80.59;93338.16;5067830;28;20525;-69
2022/07/31 03:28:49;;;;;;;5.97;4.80;;;;;;;18.16;80.14;93340.47;5068501;28;20494;-69
2022/07/31 03:31:15;;;;;;;5.53;4.10;;;;;;;18.23;78.42;93338.81;5068777;28;20020;-69
2022/07/31 03:33:43;;;;;;;7.80;5.10;;;;;;;18.19;79.30;93337.19;5069894;28;20025;-68
2022/07/31 03:36:09;;;;;;;5.80;5.03;;;;;;;18.15;80.55;93330.63;5068667;28;20028;-69
2022/07/31 03:38:34;;;;;;;6.22;4.43;;;;;;;17.73;81.76;93297.91;5069708;28;20048;-69
2022/07/31 03:41:00;;;;;;;5.75;4.03;;;;;;;18.21;80.35;93327.50;5069721;28;20030;-69
2022/07/31 03:43:27;;;;;;;4.43;4.03;;;;;;;18.41;79.64;93331.59;5067412;28;20032;-68
2022/07/31 03:45:53;;;;;;;10.48;4.85;;;;;;;18.53;79.18;93327.50;5068792;28;20020;-68
2022/07/31 03:48:19;;;;;;;5.03;4.53;;;;;;;18.57;79.47;93327.75;5068875;28;20020;-68
2022/07/31 03:50:44;;;;;;;6.53;4.32;;;;;;;18.52;79.45;93333.69;5085330;28;20445;-68
2022/07/31 03:53:11;;;;;;;8.38;4.50;;;;;;;18.43;79.34;93321.25;5069747;28;20023;-68
2022/07/31 03:55:38;;;;;;;6.88;4.10;;;;;;;18.62;79.34;93337.13;5085128;28;20031;-69
2022/07/31 03:58:04;;;;;;;6.45;3.75;;;;;;;18.63;79.17;93341.38;5068404;28;20561;-68
2022/07/31 04:00:30;;;;;;;4.28;3.85;;;;;;;18.66;79.35;93337.38;5068415;28;20145;-69
2022/07/31 04:02:56;;;;;;;5.65;4.63;;;;;;;18.64;78.97;93337.25;5068451;28;20036;-68
2022/07/31 04:05:23;;;;;;;7.60;4.53;;;;;;;18.41;78.71;93312.03;5052920;28;20107;-69
2022/07/31 04:07:49;;;;;;;5.75;5.00;;;;;;;18.56;78.93;93337.47;5049584;28;20021;-69
2022/07/31 04:10:14;;;;;;;7.47;4.05;;;;;;;18.55;79.18;93338.09;5049402;28;20383;-69
2022/07/31 04:12:40;;;;;;;7.20;4.75;;;;;;;18.62;79.04;93346.25;5081856;28;20329;-69
2022/07/31 04:15:05;;;;;;;8.18;5.43;;;;;;;18.40;79.86;93330.84;5049416;28;20472;-69
2022/07/31 04:17:31;;;;;;;10.00;5.85;;;;;;;18.57;80.70;93354.97;5049451;28;20355;-68
2022/07/31 04:19:57;;;;;;;9.40;5.90;;;;;;;18.55;80.54;93346.47;5060875;28;20107;-68
2022/07/31 04:22:22;;;;;;;10.35;6.15;;;;;;;18.67;80.27;93352.81;5069211;28;20024;-68
2022/07/31 04:24:48;;;;;;;8.02;6.07;;;;;;;18.58;79.85;93331.28;5069344;28;20020;-68
2022/07/31 04:27:16;;;;;;;13.55;7.30;;;;;;;18.61;79.67;93344.03;5071520;28;20044;-68
2022/07/31 04:29:43;;;;;;;12.07;6.90;;;;;;;18.80;79.33;93355.03;5071529;28;20021;-68
2022/07/31 04:32:09;;;;;;;9.93;6.93;;;;;;;18.76;78.70;93343.59;5072889;28;20020;-68
2022/07/31 04:34:34;;;;;;;17.83;7.72;;;;;;;18.70;80.50;93341.16;5073138;28;20111;-68
2022/07/31 04:37:00;;;;;;;10.48;7.63;;;;;;;18.67;81.03;93344.41;5071675;28;20394;-69
2022/07/31 04:39:25;;;;;;;10.70;8.07;;;;;;;18.77;81.65;93345.06;5072569;28;20044;-68
2022/07/31 04:41:51;;;;;;;13.52;8.48;;;;;;;18.64;81.35;93329.59;5072953;28;20058;-68
2022/07/31 04:44:17;;;;;;;10.98;9.05;;;;;;;18.81;82.05;93346.06;5072636;28;20482;-68
2022/07/31 04:46:42;;;;;;;10.55;8.65;;;;;;;18.73;81.90;93361.59;5071461;28;20528;-69
2022/07/31 04:49:11;;;;;;;13.82;8.50;;;;;;;18.96;80.88;93350.44;5071351;28;20028;-69
2022/07/31 04:51:37;;;;;;;;;;;;;;;19.00;80.71;93347.88;5073366;28;20024;-68
2022/07/31 04:54:02;;;;;;;13.68;9.57;;;;;;;18.95;80.95;93334.97;5071603;28;20014;-69
2022/07/31 04:56:41;;;;;;;12.40;9.65;;;;;;;19.11;81.33;93355.56;5064586;28;20502;-69
2022/07/31 04:59:11;;;;;;;15.65;10.88;;;;;;;18.93;80.05;93349.59;5052728;28;20040;-69
2022/07/31 05:01:38;;;;;;;15.43;10.88;;;;;;;19.00;80.44;93336.69;5052402;28;20053;-69
2022/07/31 05:04:03;;;;;;;13.05;9.35;;;;;;;18.89;80.13;93331.81;5052666;28;20113;-69
2022/07/31 05:06:43;;;;;;;10.75;9.35;;;;;;;18.97;79.11;93337.94;5052328;28;20448;-69
2022/07/31 05:09:14;;;;;;;14.60;9.18;;;;;;;19.19;79.21;93356.06;5102373;28;20017;-68
2022/07/31 05:11:40;;;;;;;12.00;8.98;;;;;;;18.99;80.37;93343.66;5072307;28;20028;-68
2022/07/31 05:14:07;;;;;;;13.27;8.98;;;;;;;19.18;79.75;93351.81;5070858;28;20646;-69
2022/07/31 05:28:52;;;;;;;14.80;11.35;;;;;;;20.20;74.85;93373.25;5063950;28;20623;-46
2022/07/31 05:31:19;;;;;;;15.88;11.30;;;;;;;20.06;74.80;93375.97;5064514;27;20067;-46
2022/07/31 05:33:46;;;;;;;14.10;11.93;;;;;;;19.89;76.60;93370.03;5063823;28;20029;-47
2022/07/31 05:36:12;;;;;;;15.85;11.25;;;;;;;19.61;77.52;93358.63;5064022;28;20019;-48
2022/07/31 05:38:38;;;;;;;16.83;12.05;;;;;;;19.66;78.04;93379.22;5056714;28;20104;-49
2022/07/31 05:41:03;;;;;;;15.57;11.60;;;;;;;19.52;78.27;93376.28;5043506;28;20512;-45
2022/07/31 05:43:29;;;;;;;15.38;11.48;;;;;;;19.55;77.96;93369.47;5046821;28;20028;-46
2022/07/31 05:45:54;;;;;;;20.23;13.30;;;;;;;19.43;79.01;93373.59;5063537;28;20021;-47
2022/07/31 05:48:20;;;;;;;15.70;11.68;;;;;;;19.51;78.56;93369.22;5063585;28;20023;-47
2022/07/31 05:50:48;;;;;;;14.30;11.38;;;;;;;19.43;80.12;93362.41;5063925;28;20382;-48
2022/07/31 05:53:14;;;;;;;17.83;11.95;;;;;;;19.45;80.38;93360.47;5063263;28;20028;-47
2022/07/31 05:55:44;;;;;;;17.35;11.88;;;;;;;19.51;80.79;93366.41;5063761;28;20035;-48
2022/07/31 05:58:10;;;;;;;18.75;11.10;;;;;;;19.64;80.04;93362.28;5063836;28;20100;-47
2022/07/31 06:00:36;;;;;;;12.68;11.35;;;;;;;19.71;80.46;93360.56;5060601;28;20074;-49
2022/07/31 06:03:02;;;;;;;15.15;11.27;;;;;;;19.70;80.99;93361.91;5059125;28;20588;-50
2022/07/31 06:05:28;;;;;;;16.00;11.50;;;;;;;19.58;80.69;93333.91;5063322;28;20157;-48
2022/07/31 06:07:55;;;;;;;16.05;11.60;;;;;;;19.78;80.77;93367.97;5062295;28;20682;-50
2022/07/31 06:10:21;;;;;;;14.05;10.65;;;;;;;19.83;79.19;93364.06;5063305;28;20532;-47
2022/07/31 06:12:47;;;;;;;13.80;10.80;;;;;;;19.75;80.44;93363.63;5070115;27;20060;-49
2022/07/31 06:15:13;;;;;;;11.73;10.32;;;;;;;19.63;79.38;93363.63;5063307;28;20033;-48
2022/07/31 06:17:39;;;;;;;13.70;9.93;;;;;;;19.57;80.86;93363.25;5063358;28;20023;-45
2022/07/31 06:20:06;;;;;;;19.17;11.55;;;;;;;19.66;80.45;93357.50;5063236;28;20029;-48
2022/07/31 06:22:31;;;;;;;14.32;11.68;;;;;;;19.78;82.29;93359.56;5050162;28;20017;-48
2022/07/31 06:24:57;;;;;;;15.70;10.43;;;;;;;19.95;81.18;93359.91;5042959;28;20078;-47
2022/07/31 06:27:22;;;;;;;14.27;10.90;;;;;;;20.08;80.66;93362.06;5062336;28;20044;-49
2022/07/31 06:29:48;;;;;;;13.98;10.80;;;;;;;20.16;78.78;93361.81;5049389;28;20025;-46
2022/07/31 06:32:14;;;;;;;13.38;10.80;;;;;;;20.22;78.78;93359.38;5049639;28;20025;-45
2022/07/31 06:34:40;;;;;;;15.20;11.57;;;;;;;20.33;78.63;93358.59;5048536;28;20029;-45
2022/07/31 06:37:06;;;;;;;15.73;11.10;;;;;;;20.29;78.79;93358.38;5047221;28;20040;-49
2022/07/31 06:39:31;;;;;;;12.05;9.63;;;;;;;20.34;78.82;93366.41;5043303;28;20425;-49
2022/07/31 06:41:57;;;;;;;13.88;10.60;;;;;;;20.49;78.14;93359.50;5029880;28;20410;-48
2022/07/31 06:44:23;;;;;;;14.57;10.32;;;;;;;20.58;76.76;93355.81;5047957;28;20462;-48
2022/07/31 06:46:49;;;;;;;13.32;10.02;;;;;;;20.73;77.76;93358.03;5049292;28;20052;-48
2022/07/31 06:49:15;;;;;;;12.25;10.15;;;;;;;20.84;76.57;93353.72;5049668;28;20021;-50
2022/07/31 06:51:41;;;;;;;13.63;10.32;;;;;;;20.99;76.31;93356.66;5048967;28;20029;-54
2022/07/31 06:54:09;;;;;;;12.32;10.48;;;;;;;21.15;75.07;93354.03;5049389;28;20033;-53
2022/07/31 06:56:36;;;;;;;11.48;9.02;;;;;;;21.24;72.88;93358.00;5049134;28;20031;-50
2022/07/31 06:59:04;;;;;;;12.07;9.73;;;;;;;21.40;74.30;93361.66;5049368;28;20067;-49
2022/07/31 07:01:29;;;;;;;11.63;9.65;;;;;;;21.49;72.68;93358.66;5046370;28;20025;-50
2022/07/31 07:03:55;;;;;;;11.35;9.90;;;;;;;21.25;72.95;93359.44;5047276;28;20394;-49
2022/07/31 07:06:21;;;;;;;11.63;9.73;;;;;;;21.43;73.27;93357.59;5039730;28;20026;-48
2022/07/31 07:08:47;;;;;;;15.05;9.38;;;;;;;21.48;72.69;93362.09;5029077;28;20060;-47
2022/07/31 07:11:13;;;;;;;10.00;8.80;;;;;;;21.34;72.42;93358.53;5046670;28;20021;-52
2022/07/31 07:13:39;;;;;;;9.15;8.25;;;;;;;21.66;71.18;93363.75;5049285;28;20017;-48
2022/07/31 07:16:05;;;;;;;8.25;7.38;;;;;;;21.82;70.69;93350.56;5048829;28;20028;-49
2022/07/31 07:18:30;;;;;;;9.30;6.97;;;;;;;21.98;69.74;93353.47;5048849;28;20037;-51
2022/07/31 07:20:56;;;;;;;8.93;8.02;;;;;;;22.31;68.96;93353.72;5048572;28;20161;-52
2022/07/31 07:23:22;;;;;;;11.05;9.23;;;;;;;22.15;68.61;93352.94;5048257;28;20412;-49
2022/07/31 07:25:48;;;;;;;12.52;10.35;;;;;;;22.31;68.49;93355.78;5046044;28;20700;-47
2022/07/31 07:28:13;;;;;;;12.38;9.48;;;;;;;22.35;67.78;93353.91;5047325;28;20041;-49
2022/07/31 07:30:39;;;;;;;11.13;9.93;;;;;;;21.87;68.93;93345.88;5047299;28;20585;-51
2022/07/31 07:33:04;;;;;;;10.07;8.93;;;;;;;21.77;69.86;93343.25;5047137;28;20047;-51
2022/07/31 07:35:30;;;;;;;9.73;8.60;;;;;;;22.11;70.35;93340.75;5046933;28;20022;-47
2022/07/31 07:37:56;;;;;;;10.13;8.05;;;;;;;22.56;70.02;93352.81;5047155;28;20013;-47
2022/07/31 07:40:22;;;;;;;9.88;7.32;;;;;;;22.94;68.22;93354.66;5042352;28;20033;-48
2022/07/31 07:42:48;;;;;;;10.73;8.02;;;;;;;23.35;65.50;93355.19;5037322;28;20022;-51
2022/07/31 07:45:14;;;;;;;10.73;8.38;;;;;;;23.37;66.52;93363.00;5038610;28;20048;-47
2022/07/31 07:47:39;;;;;;;9.90;7.30;;;;;;;23.12;65.60;93341.44;5046919;28;20021;-47
2022/07/31 07:50:06;;;;;;;10.60;7.65;;;;;;;24.03;64.30;93351.09;5047019;28;20028;-46
2022/07/31 07:52:34;;;;;;;7.47;6.78;;;;;;;25.04;60.67;93358.81;5046983;28;20021;-49
2022/07/31 07:54:59;;;;;;;8.18;6.28;;;;;;;24.66;61.25;93355.19;5046769;28;20025;-48
2022/07/31 07:57:25;;;;;;;7.05;5.97;;;;;;;24.20;60.02;93344.06;5046686;28;20077;-48
2022/07/31 07:59:51;;;;;;;7.25;6.55;;;;;;;24.22;60.80;93358.25;5047861;28;20515;-48
2022/07/31 08:02:17;;;;;;;7.30;6.60;;;;;;;25.11;59.82;93360.53;5048492;28;20029;-48
2022/07/31 08:04:43;;;;;;;11.45;6.82;;;;;;;25.76;57.39;93351.66;5048105;28;20032;-48
2022/07/31 08:07:09;;;;;;;8.57;7.05;;;;;;;26.15;56.64;93354.50;5048292;28;20043;-48
2022/07/31 08:09:35;;;;;;;8.82;6.35;;;;;;;26.04;57.43;93352.66;5048083;28;20021;-50
2022/07/31 08:12:02;;;;;;;6.93;6.22;;;;;;;25.25;57.44;93361.06;5047971;28;20142;-47
2022/07/31 08:14:27;;;;;;;7.65;6.88;;;;;;;25.12;59.28;93350.66;5047991;28;20025;-47
2022/07/31 08:16:53;;;;;;;9.73;6.45;;;;;;;25.97;56.75;93351.00;5046958;28;20100;-49
2022/07/31 08:19:19;;;;;;;11.18;8.70;;;;;;;26.27;55.31;93354.91;5036932;28;20086;-51
2022/07/31 08:21:45;;;;;;;7.72;6.47;;;;;;;25.98;55.17;93336.22;5039522;28;20489;-49
2022/07/31 08:24:11;;;;;;;7.47;6.85;;;;;;;26.15;57.23;93360.88;5035566;28;20033;-48
2022/07/31 08:29:21;;;;;;;8.40;6.25;;;;;;;27.09;54.64;93359.78;5027974;28;20109;-49
2022/07/31 08:31:47;;;;;;;8.95;7.50;;;;;;;28.35;51.36;93354.25;5032015;28;20494;-51
2022/07/31 08:34:12;;;;;;;37.33;21.67;;;;;;;29.64;47.21;93351.72;5047870;28;20025;-51
2022/07/31 08:36:38;;;;;;;13.45;10.20;;;;;;;29.96;45.33;93351.69;5047876;28;20071;-49
2022/07/31 08:39:04;;;;;;;7.55;6.75;;;;;;;30.20;43.89;93351.44;5047655;28;20572;-48
2022/07/31 08:41:31;;;;;;;6.10;5.50;;;;;;;29.92;43.36;93340.97;5047633;28;20528;-49
2022/07/31 08:43:58;;;;;;;28.48;17.08;;;;;;;29.71;43.98;93329.81;5047426;28;20025;-48
2022/07/31 08:46:24;;;;;;;9.52;8.18;;;;;;;28.75;46.30;93351.75;5047582;28;20508;-49
2022/07/31 08:48:53;;;;;;;7.07;6.10;;;;;;;27.90;47.88;93337.38;5045190;28;20501;-47
2022/07/31 08:51:18;;;;;;;;;;;;;;;27.23;50.43;93350.97;5038500;28;20056;-45
2022/07/31 08:53:45;;;;;;;9.40;7.63;;;;;;;26.90;51.54;93343.56;5031391;28;19959;-47
2022/07/31 08:56:11;;;;;;;11.48;10.27;;;;;;;26.54;52.36;93343.09;5055124;28;20463;-48
2022/07/31 08:58:37;;;;;;;7.00;6.32;;;;;;;26.31;52.79;93335.97;5042876;28;20093;-48
2022/07/31 09:01:03;;;;;;;11.27;10.27;;;;;;;26.49;52.52;93341.50;5043750;28;20025;-45
2022/07/31 09:03:29;;;;;;;6.78;6.18;;;;;;;26.71;50.60;93338.69;5045014;28;20029;-45
2022/07/31 09:05:55;;;;;;;7.65;5.30;;;;;;;26.80;48.34;93338.31;5045007;28;20036;-44
2022/07/31 09:08:20;;;;;;;6.30;5.75;;;;;;;26.93;49.84;93343.00;5038728;28;20616;-45
2022/07/31 09:10:47;;;;;;;6.57;5.43;;;;;;;26.91;48.98;93340.09;5043833;28;20501;-45
2022/07/31 09:13:16;;;;;;;10.23;6.20;;;;;;;27.07;49.71;93334.22;5044251;28;20028;-44
2022/07/31 09:15:42;;;;;;;7.15;6.00;;;;;;;27.04;49.01;93341.19;5045527;28;20040;-45
2022/07/31 09:18:28;;;;;;;8.90;6.55;;;;;;;26.98;50.32;93330.38;5045377;28;20044;-43
2022/07/31 09:21:12;;;;;;;9.50;6.30;;;;;;;26.89;48.89;93334.38;5044811;28;20041;-44
2022/07/31 09:23:45;;;;;;;6.95;6.32;;;;;;;26.65;51.79;93335.66;5036478;28;20032;-47
2022/07/31 09:26:11;;;;;;;6.40;5.85;;;;;;;26.40;49.78;93322.78;5044281;28;20805;-45
2022/07/31 09:28:42;;;;;;;6.45;5.85;;;;;;;27.19;51.17;93325.34;5037097;28;20052;-44
2022/07/31 09:31:09;;;;;;;6.68;5.55;;;;;;;28.91;44.19;93314.50;5032917;28;20068;-45
2022/07/31 09:33:37;;;;;;;8.25;6.03;;;;;;;29.76;43.17;93312.16;5033227;28;20037;-45
2022/07/31 09:36:03;;;;;;;7.00;6.03;;;;;;;30.96;40.43;93309.41;5040994;28;20028;-45
2022/07/31 09:38:31;;;;;;;6.93;5.53;;;;;;;31.75;38.87;93314.13;5038156;28;20025;-46
2022/07/31 09:40:57;;;;;;;5.32;4.93;;;;;;;32.06;37.78;93316.69;5043898;28;20169;-45
2022/07/31 09:43:27;;;;;;;5.40;4.90;;;;;;;31.32;38.16;93312.78;5043565;28;20025;-44
2022/07/31 09:45:59;;;;;;;6.28;5.68;;;;;;;31.11;40.56;93305.34;5037226;28;20036;-44
2022/07/31 09:48:25;;;;;;;6.65;5.60;;;;;;;30.04;42.60;93305.59;5024688;28;20014;-43
2022/07/31 09:51:02;;;;;;;6.70;6.13;;;;;;;29.68;43.46;93311.25;5030259;28;20075;-45
2022/07/31 09:53:42;;;;;;;6.57;5.85;;;;;;;28.89;43.56;93306.63;5043148;28;20050;-46
2022/07/31 09:56:11;;;;;;;7.82;6.30;;;;;;;28.14;44.86;93317.47;5049395;28;20021;-45
2022/07/31 09:58:38;;;;;;;9.75;6.65;;;;;;;27.86;45.85;93314.56;5128241;27;20143;-44
2022/07/31 10:01:04;;;;;;;9.25;7.38;;;;;;;27.66;49.17;93319.66;5128289;27;20100;-45
2022/07/31 10:03:30;;;;;;;8.63;7.75;;;;;;;27.24;49.89;93302.13;5087499;27;20065;-43
2022/07/31 10:05:56;;;;;;;7.55;6.75;;;;;;;26.95;52.42;93317.53;5041438;28;20700;-44
2022/07/31 10:08:22;;;;;;;8.88;7.28;;;;;;;26.37;54.69;93324.13;5026562;28;20021;-44
2022/07/31 10:10:48;;;;;;;8.45;7.60;;;;;;;25.90;55.83;93315.41;5040257;28;20527;-44
2022/07/31 10:13:15;;;;;;;7.93;7.13;;;;;;;25.89;56.69;93314.66;5035167;28;20037;-45
2022/07/31 10:15:41;;;;;;;7.75;7.05;;;;;;;26.24;57.21;93314.50;5042272;28;20037;-44
2022/07/31 10:18:08;;;;;;;7.45;6.75;;;;;;;26.23;54.47;93310.22;5039729;28;20025;-43
2022/07/31 10:20:35;;;;;;;13.88;12.48;;;;;;;26.07;55.89;93314.59;5043563;28;20510;-44
2022/07/31 10:23:21;;;;;;;9.45;7.90;;;;;;;25.84;54.92;93320.81;5041621;28;20572;-45
2022/07/31 10:25:50;;;;;;;9.30;8.40;;;;;;;25.54;55.01;93329.69;5037375;28;20037;-43
2022/07/31 10:28:16;;;;;;;9.15;8.23;;;;;;;25.25;56.27;93332.78;5040073;28;20056;-43
2022/07/31 10:30:42;;;;;;;9.65;8.23;;;;;;;25.02;57.76;93327.69;5047791;28;20462;-43
2022/07/31 10:33:07;;;;;;;9.85;8.57;;;;;;;24.86;58.02;93310.13;5029308;28;20021;-43
2022/07/31 10:35:40;;;;;;;9.40;8.40;;;;;;;24.99;58.60;93314.88;5032255;28;20037;-44
2022/07/31 10:38:11;;;;;;;10.00;8.13;;;;;;;24.96;58.26;93321.06;5036660;28;20106;-43
2022/07/31 10:40:54;;;;;;;9.35;8.45;;;;;;;25.11;58.53;93317.41;5038721;28;20033;-43
2022/07/31 10:43:48;;;;;;;8.60;7.80;;;;;;;25.04;57.14;93319.28;5043546;28;20029;-43
2022/07/31 10:46:13;;;;;;;10.52;8.43;;;;;;;24.87;57.74;93316.47;5020334;28;20159;-44
2022/07/31 10:48:50;;;;;;;9.88;8.85;;;;;;;24.78;58.71;93321.81;5027346;28;20115;-46
2022/07/31 10:51:15;;;;;;;10.93;8.82;;;;;;;24.64;60.46;93328.97;5040450;28;20025;-45
2022/07/31 10:53:55;;;;;;;9.55;8.52;;;;;;;24.59;58.63;93324.53;5044867;28;20838;-47
2022/07/31 10:56:21;;;;;;;12.95;8.60;;;;;;;24.45;58.58;93312.69;5037581;28;20089;-45
2022/07/31 10:58:52;;;;;;;9.70;8.50;;;;;;;25.02;58.65;93312.81;5044487;28;20025;-44
2022/07/31 11:01:19;;;;;;;9.23;8.30;;;;;;;25.67;57.66;93313.16;5033406;28;20028;-43
2022/07/31 11:03:47;;;;;;;8.88;8.00;;;;;;;26.08;55.64;93308.28;5036004;28;20120;-44
2022/07/31 11:06:16;;;;;;;8.98;8.18;;;;;;;26.14;54.87;93316.28;5036664;28;20029;-45
2022/07/31 11:08:46;;;;;;;14.65;11.68;;;;;;;26.32;53.76;93311.22;5036401;28;20405;-43
2022/07/31 11:11:13;;;;;;;9.27;8.38;;;;;;;26.83;51.51;93310.78;5040432;28;20056;-43
2022/07/31 11:13:49;;;;;;;10.15;8.90;;;;;;;27.65;49.24;93306.88;5042541;28;20041;-43
2022/07/31 11:16:16;;;;;;;13.57;10.40;;;;;;;27.57;48.52;93298.84;5046339;28;20052;-43
2022/07/31 11:18:41;;;;;;;14.82;12.70;;;;;;;27.19;50.34;93294.88;5033153;28;20505;-44
2022/07/31 11:21:08;;;;;;;9.00;8.20;;;;;;;26.86;49.82;93293.19;5039049;28;20162;-42
2022/07/31 11:23:38;;;;;;;12.35;11.10;;;;;;;26.71;52.02;93299.03;5034911;28;20461;-42
2022/07/31 11:26:06;;;;;;;13.07;11.77;;;;;;;26.51;53.59;93290.59;5038463;28;20031;-43
2022/07/31 11:28:33;;;;;;;8.38;7.53;;;;;;;27.21;52.35;93294.94;5035041;28;20037;-42
2022/07/31 11:31:02;;;;;;;8.02;7.22;;;;;;;27.40;48.24;93291.28;5036709;28;20025;-44
2022/07/31 11:33:40;;;;;;;8.63;7.53;;;;;;;27.41;50.11;93292.00;5031105;28;20038;-43
2022/07/31 11:36:11;;;;;;;10.90;8.80;;;;;;;27.50;47.91;93282.34;5026293;28;20060;-44
2022/07/31 11:38:37;;;;;;;7.40;6.70;;;;;;;27.70;49.06;93282.91;5038751;28;20037;-43
2022/07/31 11:41:04;;;;;;;10.18;8.60;;;;;;;27.88;48.89;93274.16;5029611;28;20029;-43
2022/07/31 11:43:29;;;;;;;8.05;6.80;;;;;;;28.10;49.57;93272.69;5035378;28;20026;-42
2022/07/31 11:45:55;;;;;;;8.40;7.50;;;;;;;28.64;48.71;93267.66;5033252;28;20111;-44